KSVH/SVH METAR and TAF weather

Enter ICAO airport designator
Station Type Date Time Source
KSVH METAR 2021/09/28 04:55 UTC NOAA

KSVH 280455Z AUTO 00000KT 10SM CLR 15/14 A3006 RMK AO2 T01500135 402800099


Station Type Date Time Source
KSVH Decoded METAR 2021/09/28 04:55 UTC NOAA

Statesville, Statesville Municipal Airport, NC, United States (KSVH) 35-45-55N 080-57-24W
Sep 28, 2021 - 12:55 AM EDT / 2021.09.28 0455 UTC
Wind: Calm:0
Visibility: 10 mile(s):0
Sky conditions: clear
Temperature: 59.0 F (15.0 C)
Dew Point: 56.3 F (13.5 C)
Relative Humidity: 90%
Pressure (altimeter): 30.06 in. Hg (1017 hPa)
ob: KSVH 280455Z AUTO 00000KT 10SM CLR 15/14 A3006 RMK AO2 T01500135 402800099
cycle: 5

Station Type Date Time Source
KSVH TAF UTC NOAA

Error!

Example: see airport list